Terminal Aerodrome Forecast
Issued by NWS

Home | Current Version | Previous Version | Text Only | Print | Product List | Glossary On
Versions: 1 2 3 4 5 6 7 8 9 10 11 12 13 14 15 16 17
000
FTUS46 KLOX 292017 AAB
TAFWJF
TAF AMD
KWJF 292017Z 2920/3018 05007KT P6SM VCSH BKN180
     FM292200 23015G25KT P6SM BKN180
     FM300500 24015KT P6SM SCT150 BKN250
     FM300900 24008KT P6SM SCT250=

USA.gov is the U.S. government's official web portal to all federal, state and local government web resources and services.